createdAt,value
2018-04-23T00:00:55.513Z,16.60
2018-04-23T00:01:55.499Z,16.58
2018-04-23T00:02:55.481Z,16.49
2018-04-23T00:03:55.472Z,16.48
2018-04-23T00:04:55.454Z,16.63
2018-04-23T00:05:55.441Z,16.61
2018-04-23T00:06:55.424Z,16.64
2018-04-23T00:07:55.409Z,16.67
2018-04-23T00:08:55.394Z,16.61
2018-04-23T00:09:55.382Z,16.58
2018-04-23T00:10:55.369Z,16.64
2018-04-23T00:11:55.353Z,16.53
2018-04-23T00:12:55.339Z,16.45
2018-04-23T00:13:55.333Z,16.33
2018-04-23T00:14:55.315Z,16.25
2018-04-23T00:15:55.303Z,16.35
2018-04-23T00:16:55.282Z,16.31
2018-04-23T00:17:55.267Z,16.46
2018-04-23T00:18:55.252Z,16.46
2018-04-23T00:19:55.239Z,16.56
2018-04-23T00:20:55.230Z,16.56
2018-04-23T00:21:55.215Z,16.58
2018-04-23T00:22:55.197Z,16.64
2018-04-23T00:23:55.182Z,16.57
2018-04-23T00:24:55.171Z,16.61
2018-04-23T00:25:55.153Z,16.56
2018-04-23T00:26:55.137Z,16.63
2018-04-23T00:27:55.126Z,16.49
2018-04-23T00:28:55.117Z,16.60
2018-04-23T00:29:55.111Z,16.49
2018-04-23T00:30:55.078Z,16.57
2018-04-23T00:31:55.068Z,16.61
2018-04-23T00:32:55.053Z,16.68
2018-04-23T00:33:55.040Z,16.75
2018-04-23T00:34:55.027Z,16.73
2018-04-23T00:35:55.009Z,16.79
2018-04-23T00:36:54.996Z,16.82
2018-04-23T00:37:54.982Z,16.73
2018-04-23T00:38:54.973Z,16.75
2018-04-23T00:39:54.952Z,16.70
2018-04-23T00:40:54.938Z,16.60
2018-04-23T00:41:54.924Z,16.61
2018-04-23T00:42:54.907Z,16.53
2018-04-23T00:43:54.891Z,16.57
2018-04-23T00:44:54.877Z,16.45
2018-04-23T00:45:54.868Z,16.43
2018-04-23T00:46:54.856Z,16.48
2018-04-23T00:47:54.834Z,16.49
2018-04-23T00:48:54.817Z,16.39
2018-04-23T00:49:54.803Z,16.41
2018-04-23T00:50:54.788Z,16.50
2018-04-23T00:51:54.774Z,16.53
2018-04-23T00:52:54.759Z,16.50
2018-04-23T00:53:54.741Z,16.46
2018-04-23T00:54:54.729Z,16.46
2018-04-23T00:55:54.712Z,16.43
2018-04-23T00:56:54.699Z,16.48
2018-04-23T00:57:54.688Z,16.45
2018-04-23T00:58:54.671Z,16.43
2018-04-23T00:59:54.653Z,16.50
2018-04-23T01:00:54.640Z,16.52
2018-04-23T01:01:54.632Z,16.50
2018-04-23T01:02:54.608Z,16.58
2018-04-23T01:03:54.593Z,16.52
2018-04-23T01:04:54.581Z,16.63
2018-04-23T01:05:54.568Z,16.53
2018-04-23T01:06:54.552Z,16.57
2018-04-23T01:07:54.535Z,16.56
2018-04-23T01:08:54.522Z,16.61
2018-04-23T01:09:54.504Z,16.50
2018-04-23T01:10:54.490Z,16.48
2018-04-23T01:11:54.475Z,16.49
2018-04-23T01:12:54.469Z,16.56
2018-04-23T01:13:54.451Z,16.61
2018-04-23T01:14:54.432Z,16.52
2018-04-23T01:15:54.428Z,16.56
2018-04-23T01:16:54.402Z,16.56
2018-04-23T01:17:54.388Z,16.60
2018-04-23T01:18:54.373Z,16.56
2018-04-23T01:19:54.357Z,16.56
2018-04-23T01:20:54.343Z,16.53
2018-04-23T01:21:54.331Z,16.46
2018-04-23T01:22:54.315Z,16.50
2018-04-23T01:23:54.302Z,16.48
2018-04-23T01:24:54.283Z,16.46
2018-04-23T01:25:54.274Z,16.46
2018-04-23T01:26:54.254Z,16.43
2018-04-23T01:27:54.240Z,16.50
2018-04-23T01:28:54.224Z,16.46
2018-04-23T01:29:54.212Z,16.48
2018-04-23T01:30:54.198Z,16.42
2018-04-23T01:31:54.183Z,16.42
2018-04-23T01:32:54.165Z,16.46
2018-04-23T01:33:54.158Z,16.45
2018-04-23T01:34:54.137Z,16.41
2018-04-23T01:35:54.123Z,16.48
2018-04-23T01:36:54.113Z,16.30
2018-04-23T01:37:54.092Z,16.34
2018-04-23T01:38:54.079Z,16.42
2018-04-23T01:39:54.068Z,16.39
2018-04-23T01:40:54.051Z,16.46
2018-04-23T01:41:54.085Z,16.41
2018-04-23T01:42:54.019Z,16.31
2018-04-23T01:43:54.011Z,16.39
2018-04-23T01:44:53.993Z,16.31
2018-04-23T01:45:53.985Z,16.34
2018-04-23T01:46:53.968Z,16.43
2018-04-23T01:47:53.948Z,16.30
2018-04-23T01:48:53.933Z,16.25
2018-04-23T01:49:53.921Z,16.27
2018-04-23T01:50:53.903Z,16.25
2018-04-23T01:51:53.896Z,16.30
2018-04-23T01:52:53.878Z,16.24
2018-04-23T01:53:53.862Z,16.34
2018-04-23T01:54:53.851Z,16.43
2018-04-23T01:55:53.833Z,16.21
2018-04-23T01:56:53.822Z,16.33
2018-04-23T01:57:53.804Z,16.31
2018-04-23T01:58:53.791Z,16.33
2018-04-23T01:59:53.775Z,16.30
2018-04-23T02:00:53.764Z,16.38
2018-04-23T02:01:53.744Z,16.34
2018-04-23T02:02:53.731Z,16.34
2018-04-23T02:03:53.721Z,16.28
2018-04-23T02:04:53.702Z,16.27
2018-04-23T02:05:53.688Z,16.30
2018-04-23T02:06:53.672Z,16.24
2018-04-23T02:07:53.657Z,16.25
2018-04-23T02:08:53.645Z,16.25
2018-04-23T02:09:53.632Z,16.25
2018-04-23T02:10:53.613Z,16.33
2018-04-23T02:11:53.599Z,16.25
2018-04-23T02:12:53.585Z,16.25
2018-04-23T02:13:53.576Z,16.28
2018-04-23T02:14:53.555Z,16.31
2018-04-23T02:15:53.542Z,16.23
2018-04-23T02:16:53.532Z,16.28
2018-04-23T02:17:53.518Z,16.34
2018-04-23T02:18:53.505Z,16.27
2018-04-23T02:19:53.481Z,16.27
2018-04-23T02:20:53.469Z,16.28
2018-04-23T02:21:53.466Z,16.23
2018-04-23T02:22:53.477Z,16.38
2018-04-23T02:23:53.426Z,16.31
2018-04-23T02:24:53.416Z,16.34
2018-04-23T02:25:53.401Z,16.23
2018-04-23T02:26:53.384Z,16.28
2018-04-23T02:27:53.373Z,16.15
2018-04-23T02:28:53.353Z,16.14
2018-04-23T02:29:53.337Z,16.09
2018-04-23T02:30:53.335Z,16.07
2018-04-23T02:31:53.316Z,16.15
2018-04-23T02:32:53.295Z,16.12
2018-04-23T02:33:53.279Z,16.12
2018-04-23T02:34:53.265Z,16.01
2018-04-23T02:35:53.254Z,16.02
2018-04-23T02:36:53.241Z,16.04
2018-04-23T02:37:53.224Z,16.04
2018-04-23T02:38:53.219Z,16.00
2018-04-23T02:39:53.190Z,16.04
2018-04-23T02:40:53.177Z,16.00
2018-04-23T02:41:53.163Z,16.02
2018-04-23T02:42:53.153Z,16.08
2018-04-23T02:43:53.139Z,16.09
2018-04-23T02:44:53.124Z,16.07
2018-04-23T02:45:53.106Z,16.01
2018-04-23T02:46:53.092Z,16.02
2018-04-23T02:47:53.076Z,16.04
2018-04-23T02:48:53.062Z,16.02
2018-04-23T02:49:53.050Z,16.02
2018-04-23T02:50:53.030Z,16.01
2018-04-23T02:51:53.027Z,16.07
2018-04-23T02:52:53.003Z,16.04
2018-04-23T02:53:52.987Z,16.02
2018-04-23T02:54:52.990Z,16.04
2018-04-23T02:55:52.961Z,16.08
2018-04-23T02:56:52.951Z,16.00
2018-04-23T02:57:52.936Z,15.94
2018-04-23T02:58:52.918Z,15.97
2018-04-23T02:59:52.902Z,15.96
2018-04-23T03:00:52.890Z,15.93
2018-04-23T03:01:52.873Z,15.89
2018-04-23T03:02:52.857Z,15.87
2018-04-23T03:03:52.840Z,15.86
2018-04-23T03:04:52.828Z,15.83
2018-04-23T03:05:52.813Z,15.82
2018-04-23T03:06:52.802Z,15.82
2018-04-23T03:07:52.783Z,15.83
2018-04-23T03:08:52.770Z,15.83
2018-04-23T03:09:52.753Z,15.83
2018-04-23T03:10:52.737Z,15.80
2018-04-23T03:11:52.724Z,15.92
2018-04-23T03:12:52.715Z,15.83
2018-04-23T03:13:52.695Z,15.83
2018-04-23T03:14:52.678Z,15.76
2018-04-23T03:15:52.663Z,15.78
2018-04-23T03:16:52.651Z,15.86
2018-04-23T03:17:52.633Z,15.86
2018-04-23T03:18:52.622Z,15.84
2018-04-23T03:19:52.607Z,15.82
2018-04-23T03:20:52.592Z,15.82
2018-04-23T03:21:52.579Z,15.83
2018-04-23T03:22:52.562Z,15.84
2018-04-23T03:23:52.541Z,15.78
2018-04-23T03:24:52.533Z,15.90
2018-04-23T03:25:52.519Z,15.86
2018-04-23T03:26:53.006Z,15.78
2018-04-23T03:27:52.487Z,15.83
2018-04-23T03:28:52.470Z,15.74
2018-04-23T03:29:52.461Z,15.69
2018-04-23T03:30:52.439Z,15.78
2018-04-23T03:31:52.433Z,15.71
2018-04-23T03:32:52.413Z,15.69
2018-04-23T03:33:52.401Z,15.72
2018-04-23T03:34:52.381Z,15.67
2018-04-23T03:35:52.367Z,15.67
2018-04-23T03:36:52.353Z,15.64
2018-04-23T03:37:52.336Z,15.69
2018-04-23T03:38:52.322Z,15.57
2018-04-23T03:39:52.304Z,15.57
2018-04-23T03:40:52.295Z,15.67
2018-04-23T03:41:52.284Z,15.67
2018-04-23T03:42:52.263Z,15.64
2018-04-23T03:43:52.253Z,15.68
2018-04-23T03:44:52.234Z,15.65
2018-04-23T03:45:52.218Z,15.60
2018-04-23T03:46:52.203Z,15.65
2018-04-23T03:47:52.218Z,15.60
2018-04-23T03:48:52.172Z,15.54
2018-04-23T03:49:52.159Z,15.60
2018-04-23T03:50:52.140Z,15.72
2018-04-23T03:51:52.124Z,15.64
2018-04-23T03:52:52.113Z,15.59
2018-04-23T03:53:52.101Z,15.56
2018-04-23T03:54:52.081Z,15.50
2018-04-23T03:55:52.068Z,15.60
2018-04-23T03:56:52.052Z,15.64
2018-04-23T03:57:52.038Z,15.60
2018-04-23T03:58:52.032Z,15.59
2018-04-23T03:59:52.007Z,15.51
2018-04-23T04:00:51.991Z,15.53
2018-04-23T04:01:51.976Z,15.49
2018-04-23T04:02:51.959Z,15.54
2018-04-23T04:03:51.948Z,15.51
2018-04-23T04:04:51.933Z,15.65
2018-04-23T04:05:51.920Z,15.51
2018-04-23T04:06:51.903Z,15.51
2018-04-23T04:07:51.883Z,15.59
2018-04-23T04:08:51.874Z,15.57
2018-04-23T04:09:51.863Z,15.64
2018-04-23T04:10:51.850Z,15.50
2018-04-23T04:11:51.829Z,15.51
2018-04-23T04:12:51.810Z,15.54
2018-04-23T04:13:51.798Z,15.56
2018-04-23T04:14:51.783Z,15.51
2018-04-23T04:15:51.766Z,15.57
2018-04-23T04:16:51.801Z,15.46
2018-04-23T04:17:51.736Z,15.50
2018-04-23T04:18:51.723Z,15.47
2018-04-23T04:19:51.708Z,15.50
2018-04-23T04:20:51.692Z,15.50
2018-04-23T04:21:51.674Z,15.67
2018-04-23T04:22:51.659Z,15.56
2018-04-23T04:23:51.643Z,15.54
2018-04-23T04:24:51.628Z,15.50
2018-04-23T04:25:51.613Z,15.50
2018-04-23T04:26:51.600Z,15.59
2018-04-23T04:27:51.583Z,15.46
2018-04-23T04:28:51.567Z,15.43
2018-04-23T04:29:51.558Z,15.44
2018-04-23T04:30:51.543Z,15.46
2018-04-23T04:31:51.520Z,15.46
2018-04-23T04:32:51.512Z,15.41
2018-04-23T04:33:51.494Z,15.41
2018-04-23T04:34:51.480Z,15.36
2018-04-23T04:35:51.463Z,15.39
2018-04-23T04:36:51.446Z,15.44
2018-04-23T04:37:51.434Z,15.35
2018-04-23T04:38:51.423Z,15.38
2018-04-23T04:39:51.400Z,15.39
2018-04-23T04:40:51.384Z,15.36
2018-04-23T04:41:51.377Z,15.49
2018-04-23T04:42:51.354Z,15.38
2018-04-23T04:43:51.378Z,15.36
2018-04-23T04:44:51.323Z,15.46
2018-04-23T04:45:51.314Z,15.41
2018-04-23T04:46:51.293Z,15.41
2018-04-23T04:47:51.283Z,15.36
2018-04-23T04:48:51.264Z,15.41
2018-04-23T04:49:51.253Z,15.39
2018-04-23T04:50:51.233Z,15.41
2018-04-23T04:51:51.229Z,15.47
2018-04-23T04:52:51.204Z,15.50
2018-04-23T04:53:51.192Z,15.49
2018-04-23T04:54:51.174Z,15.32
2018-04-23T04:55:51.158Z,15.36
2018-04-23T04:56:51.142Z,15.41
2018-04-23T04:57:51.125Z,15.43
2018-04-23T04:58:51.110Z,15.44
2018-04-23T04:59:51.098Z,15.38
2018-04-23T05:00:51.086Z,15.47
2018-04-23T05:01:51.071Z,15.43
2018-04-23T05:02:51.056Z,15.41
2018-04-23T05:03:51.033Z,15.43
2018-04-23T05:04:51.024Z,15.39
2018-04-23T05:05:51.012Z,15.46
2018-04-23T05:06:50.989Z,15.46
2018-04-23T05:07:50.983Z,15.53
2018-04-23T05:08:50.964Z,15.54
2018-04-23T05:09:50.948Z,15.47
2018-04-23T05:10:50.928Z,15.41
2018-04-23T05:11:50.927Z,15.32
2018-04-23T05:12:50.897Z,15.36
2018-04-23T05:13:50.885Z,15.43
2018-04-23T05:14:50.872Z,15.36
2018-04-23T05:15:50.859Z,15.46
2018-04-23T05:16:50.842Z,15.54
2018-04-23T05:17:50.828Z,15.49
2018-04-23T05:18:50.812Z,15.50
2018-04-23T05:19:50.794Z,15.46
2018-04-23T05:20:50.784Z,15.57
2018-04-23T05:21:50.766Z,15.53
2018-04-23T05:22:50.752Z,15.51
2018-04-23T05:23:50.808Z,15.44
2018-04-23T05:24:50.718Z,15.41
2018-04-23T05:25:50.704Z,15.47
2018-04-23T05:26:50.686Z,15.47
2018-04-23T05:27:50.673Z,15.39
2018-04-23T05:28:50.662Z,15.39
2018-04-23T05:29:50.645Z,15.39
2018-04-23T05:30:50.631Z,15.41
2018-04-23T05:31:50.614Z,15.44
2018-04-23T05:32:50.599Z,15.43
2018-04-23T05:33:50.583Z,15.44
2018-04-23T05:34:50.569Z,15.50
2018-04-23T05:35:50.551Z,15.51
2018-04-23T05:36:50.537Z,15.39
2018-04-23T05:37:50.534Z,15.31
2018-04-23T05:38:50.505Z,15.29
2018-04-23T05:39:50.493Z,15.32
2018-04-23T05:40:50.482Z,15.31
2018-04-23T05:41:50.463Z,15.29
2018-04-23T05:42:50.446Z,15.23
2018-04-23T05:43:50.434Z,15.28
2018-04-23T05:44:50.418Z,15.31
2018-04-23T05:45:50.402Z,15.38
2018-04-23T05:46:50.388Z,15.29
2018-04-23T05:47:50.371Z,15.39
2018-04-23T05:48:50.355Z,15.38
2018-04-23T05:49:50.340Z,15.28
2018-04-23T05:50:50.322Z,15.31
2018-04-23T05:51:50.315Z,15.29
2018-04-23T05:52:50.292Z,15.27
2018-04-23T05:53:50.283Z,15.25
2018-04-23T05:54:50.263Z,15.27
2018-04-23T05:55:50.247Z,15.27
2018-04-23T05:56:50.233Z,15.21
2018-04-23T05:57:50.221Z,15.27
2018-04-23T05:58:50.205Z,15.25
2018-04-23T05:59:50.185Z,15.31
2018-04-23T06:00:50.176Z,15.31
2018-04-23T06:01:50.162Z,15.25
2018-04-23T06:02:50.153Z,15.13
2018-04-23T06:03:50.124Z,15.16
2018-04-23T06:04:50.111Z,15.20
2018-04-23T06:05:50.104Z,15.16
2018-04-23T06:06:50.079Z,15.06
2018-04-23T06:07:50.066Z,14.99
2018-04-23T06:08:50.048Z,15.07
2018-04-23T06:09:50.032Z,15.02
2018-04-23T06:10:50.016Z,15.03
2018-04-23T06:11:50.001Z,15.01
2018-04-23T06:12:49.992Z,15.09
2018-04-23T06:13:49.982Z,15.09
2018-04-23T06:14:49.962Z,15.01
2018-04-23T06:15:49.942Z,14.91
2018-04-23T06:16:49.927Z,14.96
2018-04-23T06:17:49.912Z,15.06
2018-04-23T06:18:49.898Z,15.03
2018-04-23T06:19:49.882Z,14.99
2018-04-23T06:20:49.865Z,15.03
2018-04-23T06:21:49.851Z,15.06
2018-04-23T06:22:49.832Z,15.09
2018-04-23T06:23:49.817Z,15.07
2018-04-23T06:24:49.801Z,15.19
2018-04-23T06:25:49.789Z,15.19
2018-04-23T06:26:49.770Z,15.16
2018-04-23T06:27:49.756Z,15.06
2018-04-23T06:28:49.738Z,15.07
2018-04-23T06:29:49.724Z,15.09
2018-04-23T06:30:49.708Z,15.09
2018-04-23T06:31:49.700Z,15.06
2018-04-23T06:32:49.677Z,15.11
2018-04-23T06:33:49.663Z,15.03
2018-04-23T06:34:49.648Z,15.10
2018-04-23T06:35:49.630Z,15.07
2018-04-23T06:36:49.623Z,15.16
2018-04-23T06:37:49.599Z,15.16
2018-04-23T06:38:49.585Z,15.21
2018-04-23T06:39:49.574Z,15.13
2018-04-23T06:40:49.559Z,15.06
2018-04-23T06:41:49.537Z,15.03
2018-04-23T06:42:49.520Z,15.06
2018-04-23T06:43:49.510Z,15.07
2018-04-23T06:44:49.489Z,15.07
2018-04-23T06:45:49.483Z,14.99
2018-04-23T06:46:49.456Z,15.03
2018-04-23T06:47:49.452Z,15.06
2018-04-23T06:48:49.434Z,15.11
2018-04-23T06:49:49.421Z,15.10
2018-04-23T06:50:49.400Z,15.06
2018-04-23T06:51:49.391Z,15.01
2018-04-23T06:52:49.367Z,15.07
2018-04-23T06:53:49.362Z,14.99
2018-04-23T06:54:49.332Z,15.06
2018-04-23T06:55:49.326Z,15.09
2018-04-23T06:56:49.307Z,15.11
2018-04-23T06:57:49.291Z,15.07
2018-04-23T06:58:49.279Z,15.07
2018-04-23T06:59:49.257Z,15.02
2018-04-23T07:00:49.243Z,15.11
2018-04-23T07:01:49.252Z,15.03
2018-04-23T07:02:49.222Z,15.07
2018-04-23T07:03:49.197Z,15.01
2018-04-23T07:04:49.230Z,15.13
2018-04-23T07:05:49.166Z,15.21
2018-04-23T07:06:49.151Z,15.17
2018-04-23T07:07:49.136Z,15.10
2018-04-23T07:08:49.120Z,15.13
2018-04-23T07:09:49.101Z,15.13
2018-04-23T07:10:49.089Z,15.17
2018-04-23T07:11:49.073Z,15.28
2018-04-23T07:12:49.057Z,15.31
2018-04-23T07:13:49.041Z,15.23
2018-04-23T07:14:49.030Z,15.29
2018-04-23T07:15:49.008Z,15.27
2018-04-23T07:16:48.992Z,15.29
2018-04-23T07:17:48.986Z,15.39
2018-04-23T07:18:48.962Z,15.27
2018-04-23T07:19:48.946Z,15.28
2018-04-23T07:20:48.930Z,15.34
2018-04-23T07:21:48.921Z,15.35
2018-04-23T07:22:48.898Z,15.25
2018-04-23T07:23:48.891Z,15.31
2018-04-23T07:24:48.868Z,15.27
2018-04-23T07:25:48.856Z,15.19
2018-04-23T07:26:48.841Z,15.25
2018-04-23T07:27:48.822Z,15.20
2018-04-23T07:28:48.816Z,15.27
2018-04-23T07:29:48.804Z,15.28
2018-04-23T07:30:48.781Z,15.36
2018-04-23T07:31:48.763Z,15.43
2018-04-23T07:32:48.745Z,15.27
2018-04-23T07:33:48.731Z,15.32
2018-04-23T07:34:48.739Z,15.13
2018-04-23T07:35:48.704Z,15.17
2018-04-23T07:36:48.683Z,15.14
2018-04-23T07:37:48.672Z,15.19
2018-04-23T07:38:48.652Z,15.38
2018-04-23T07:39:48.640Z,15.35
2018-04-23T07:40:48.631Z,15.36
2018-04-23T07:41:48.610Z,15.39
2018-04-23T07:42:48.594Z,15.35
2018-04-23T07:43:48.579Z,15.43
2018-04-23T07:44:48.563Z,15.50
2018-04-23T07:45:48.546Z,15.57
2018-04-23T07:46:48.530Z,15.71
2018-04-23T07:47:48.520Z,15.67
2018-04-23T07:48:48.502Z,15.71
2018-04-23T07:49:48.481Z,15.78
2018-04-23T07:50:48.467Z,15.75
2018-04-23T07:51:48.455Z,15.68
2018-04-23T07:52:48.436Z,15.71
2018-04-23T07:53:48.421Z,15.69
2018-04-23T07:54:48.404Z,15.84
2018-04-23T07:55:48.389Z,15.69
2018-04-23T07:56:48.374Z,15.75
2018-04-23T07:57:48.366Z,15.78
2018-04-23T07:58:48.343Z,15.92
2018-04-23T07:59:48.331Z,16.08
2018-04-23T08:00:48.313Z,15.94
2018-04-23T08:01:48.300Z,15.94
2018-04-23T08:02:48.280Z,16.07
2018-04-23T08:03:48.273Z,16.11
2018-04-23T08:04:48.254Z,16.24
2018-04-23T08:05:48.240Z,16.21
2018-04-23T08:06:48.233Z,16.15
2018-04-23T08:07:48.207Z,16.17
2018-04-23T08:08:48.189Z,16.11
2018-04-23T08:09:48.179Z,16.11
2018-04-23T08:10:48.160Z,16.11
2018-04-23T08:11:48.145Z,16.20
2018-04-23T08:12:48.134Z,16.17
2018-04-23T08:13:48.111Z,16.28
2018-04-23T08:14:48.097Z,16.01
2018-04-23T08:15:48.089Z,16.12
2018-04-23T08:16:48.066Z,16.09
2018-04-23T08:17:48.052Z,16.11
2018-04-23T08:18:48.044Z,16.12
2018-04-23T08:19:48.118Z,16.11
2018-04-23T08:20:48.010Z,16.30
2018-04-23T08:21:47.991Z,16.24
2018-04-23T08:22:47.977Z,16.07
2018-04-23T08:23:47.966Z,16.33
2018-04-23T08:24:47.952Z,16.34
2018-04-23T08:25:47.930Z,16.21
2018-04-23T08:26:47.920Z,16.24
2018-04-23T08:27:47.908Z,16.07
2018-04-23T08:28:47.887Z,16.21
2018-04-23T08:29:47.869Z,16.09
2018-04-23T08:30:47.853Z,15.86
2018-04-23T08:31:47.850Z,15.84
2018-04-23T08:32:47.841Z,15.72
2018-04-23T08:33:47.812Z,15.71
2018-04-23T08:34:47.797Z,15.57
2018-04-23T08:35:47.782Z,15.56
2018-04-23T08:36:47.760Z,15.69
2018-04-23T08:37:47.747Z,15.84
2018-04-23T08:38:47.732Z,15.74
2018-04-23T08:39:47.723Z,15.96
2018-04-23T08:40:47.702Z,16.00
2018-04-23T08:41:47.689Z,16.11
2018-04-23T08:42:47.680Z,16.34
2018-04-23T08:43:47.680Z,16.46
2018-04-23T08:44:47.649Z,16.60
2018-04-23T08:45:47.633Z,16.73
2018-04-23T08:46:47.627Z,16.79
2018-04-23T08:47:47.610Z,16.79
2018-04-23T08:48:47.582Z,16.82
2018-04-23T08:49:47.571Z,16.61
2018-04-23T08:50:47.554Z,16.48
2018-04-23T08:51:47.545Z,16.63
2018-04-23T08:52:47.523Z,16.50
2018-04-23T08:53:47.523Z,16.56
2018-04-23T08:54:47.493Z,16.41
2018-04-23T08:55:47.502Z,16.57
2018-04-23T08:56:47.463Z,16.60
2018-04-23T08:57:47.453Z,16.68
2018-04-23T08:58:47.435Z,16.53
2018-04-23T08:59:47.420Z,16.42
2018-04-23T09:00:47.410Z,16.50
2018-04-23T09:01:47.390Z,16.46
2018-04-23T09:02:47.377Z,16.41
2018-04-23T09:03:47.363Z,16.28
2018-04-23T09:04:47.345Z,16.30
2018-04-23T09:05:47.332Z,16.43
2018-04-23T09:06:47.314Z,16.27
2018-04-23T09:07:47.307Z,16.12
2018-04-23T09:08:47.292Z,16.02
2018-04-23T09:09:47.284Z,16.11
2018-04-23T09:10:47.257Z,15.94
2018-04-23T09:11:47.269Z,15.90
2018-04-23T09:12:47.227Z,15.92
2018-04-23T09:13:47.220Z,15.78
2018-04-23T09:14:47.195Z,15.83
2018-04-23T09:15:47.183Z,15.78
2018-04-23T09:16:47.164Z,15.80
2018-04-23T09:17:47.183Z,15.76
2018-04-23T09:18:47.135Z,15.78
2018-04-23T09:19:47.123Z,15.69
2018-04-23T09:20:47.100Z,15.69
2018-04-23T09:21:47.096Z,15.83
2018-04-23T09:22:47.072Z,15.71
2018-04-23T09:23:47.068Z,15.74
2018-04-23T09:24:47.060Z,15.90
2018-04-23T09:25:47.024Z,15.92
2018-04-23T09:26:47.014Z,16.02
2018-04-23T09:27:46.998Z,16.07
2018-04-23T09:28:46.986Z,16.08
2018-04-23T09:29:46.972Z,16.31
2018-04-23T09:30:46.946Z,16.27
2018-04-23T09:31:46.934Z,16.42
2018-04-23T09:32:46.925Z,16.49
2018-04-23T09:33:46.903Z,16.91
2018-04-23T09:34:46.888Z,17.01
2018-04-23T09:35:46.872Z,17.21
2018-04-23T09:36:46.863Z,17.52
2018-04-23T09:37:46.842Z,17.64
2018-04-23T09:38:46.825Z,17.77
2018-04-23T09:39:46.818Z,17.75
2018-04-23T09:40:46.802Z,17.84
2018-04-23T09:41:46.783Z,17.84
2018-04-23T09:42:46.769Z,17.77
2018-04-23T09:43:46.757Z,17.71
2018-04-23T09:44:46.738Z,17.81
2018-04-23T09:45:46.726Z,17.96
2018-04-23T09:46:46.706Z,18.15
2018-04-23T09:47:46.693Z,18.25
2018-04-23T09:48:46.682Z,18.30
2018-04-23T09:49:46.667Z,18.47
2018-04-23T09:50:46.650Z,18.65
2018-04-23T09:51:46.633Z,18.33
2018-04-23T09:52:46.624Z,18.17
2018-04-23T09:53:46.604Z,17.93
2018-04-23T09:54:46.593Z,18.15
2018-04-23T09:55:46.574Z,18.11
2018-04-23T09:56:46.564Z,18.18
2018-04-23T09:57:46.564Z,18.32
2018-04-23T09:58:46.533Z,18.47
2018-04-23T09:59:46.524Z,18.32
2018-04-23T10:00:46.507Z,18.35
2018-04-23T10:01:46.492Z,18.26
2018-04-23T10:02:46.479Z,18.21
2018-04-23T10:03:46.463Z,17.99
2018-04-23T10:04:46.454Z,17.81
2018-04-23T10:05:46.440Z,17.74
2018-04-23T10:06:46.427Z,17.31
2018-04-23T10:07:46.406Z,17.43
2018-04-23T10:08:46.396Z,17.30
2018-04-23T10:09:46.379Z,17.18
2018-04-23T10:10:46.363Z,17.14
2018-04-23T10:11:46.353Z,17.11
2018-04-23T10:12:46.337Z,16.93
2018-04-23T10:13:46.325Z,17.03
2018-04-23T10:14:46.307Z,17.22
2018-04-23T10:15:46.294Z,17.46
2018-04-23T10:16:46.284Z,17.49
2018-04-23T10:17:46.263Z,17.44
2018-04-23T10:18:46.259Z,17.46
2018-04-23T10:19:46.242Z,17.43
2018-04-23T10:20:46.223Z,17.44
2018-04-23T10:21:46.205Z,17.48
2018-04-23T10:22:46.198Z,17.52
2018-04-23T10:23:46.186Z,17.37
2018-04-23T10:24:46.165Z,17.37
2018-04-23T10:25:46.148Z,17.40
2018-04-23T10:26:46.135Z,17.62
2018-04-23T10:27:46.116Z,17.48
2018-04-23T10:28:46.107Z,17.21
2018-04-23T10:29:46.094Z,17.07
2018-04-23T10:30:46.073Z,17.03
2018-04-23T10:31:46.067Z,17.06
2018-04-23T10:32:46.046Z,17.08
2018-04-23T10:33:46.035Z,17.06
2018-04-23T10:34:46.025Z,17.01
2018-04-23T10:35:46.003Z,16.96
2018-04-23T10:36:45.993Z,16.93
2018-04-23T10:37:45.973Z,16.91
2018-04-23T10:38:45.963Z,16.83
2018-04-23T10:39:45.947Z,16.82
2018-04-23T10:40:45.930Z,17.00
2018-04-23T10:41:45.923Z,17.22
2018-04-23T10:42:45.903Z,17.15
2018-04-23T10:43:45.888Z,17.18
2018-04-23T10:44:45.876Z,17.14
2018-04-23T10:45:45.867Z,17.08
2018-04-23T10:46:45.842Z,17.19
2018-04-23T10:47:45.835Z,17.52
2018-04-23T10:48:45.818Z,17.46
2018-04-23T10:49:45.806Z,17.44
2018-04-23T10:50:45.792Z,17.25
2018-04-23T10:51:45.770Z,17.31
2018-04-23T10:52:45.757Z,17.55
2018-04-23T10:53:45.742Z,17.58
2018-04-23T10:54:45.725Z,17.52
2018-04-23T10:55:45.712Z,17.63
2018-04-23T10:56:45.709Z,17.55
2018-04-23T10:57:45.683Z,17.55
2018-04-23T10:58:45.669Z,17.59
2018-04-23T10:59:45.665Z,17.75
2018-04-23T11:00:45.637Z,17.79
2018-04-23T11:01:45.624Z,18.10
2018-04-23T11:02:45.614Z,18.10
2018-04-23T11:03:45.598Z,18.08
2018-04-23T11:04:45.583Z,18.11
2018-04-23T11:05:45.606Z,17.93
2018-04-23T11:06:45.554Z,18.17
2018-04-23T11:07:45.538Z,18.42
2018-04-23T11:08:45.524Z,18.48
2018-04-23T11:09:45.532Z,18.57
2018-04-23T11:10:45.498Z,18.73
2018-04-23T11:11:45.479Z,18.87
2018-04-23T11:12:45.464Z,19.04
2018-04-23T11:13:45.451Z,19.02
2018-04-23T11:14:45.441Z,19.07
2018-04-23T11:15:45.441Z,19.00
2018-04-23T11:16:45.409Z,19.18
2018-04-23T11:17:45.397Z,19.06
2018-04-23T11:18:45.387Z,19.11
2018-04-23T11:19:45.375Z,19.22
2018-04-23T11:20:45.353Z,19.28
2018-04-23T11:21:45.343Z,19.16
2018-04-23T11:22:45.379Z,18.75
2018-04-23T11:23:45.310Z,18.70
2018-04-23T11:24:45.344Z,18.76
2018-04-23T11:25:45.283Z,18.80
2018-04-23T11:26:45.287Z,18.84
2018-04-23T11:27:45.264Z,18.73
2018-04-23T11:28:45.247Z,18.75
2018-04-23T11:29:45.229Z,18.69
2018-04-23T11:30:45.216Z,18.58
2018-04-23T11:31:45.207Z,18.50
2018-04-23T11:32:45.195Z,18.15
2018-04-23T11:33:45.173Z,18.14
2018-04-23T11:34:45.159Z,18.18
2018-04-23T11:35:45.151Z,18.10
2018-04-23T11:36:45.138Z,18.05
2018-04-23T11:37:45.120Z,17.81
2018-04-23T11:38:45.109Z,17.68
2018-04-23T11:39:45.095Z,17.51
2018-04-23T11:40:45.082Z,17.46
2018-04-23T11:41:45.065Z,17.40
2018-04-23T11:42:45.050Z,17.49
2018-04-23T11:43:45.036Z,17.56
2018-04-23T11:44:45.044Z,17.49
2018-04-23T11:45:45.015Z,17.51
2018-04-23T11:46:45.000Z,17.46
2018-04-23T11:47:44.979Z,17.26
2018-04-23T11:48:44.969Z,17.33
2018-04-23T11:49:44.965Z,17.23
2018-04-23T11:50:44.935Z,17.18
2018-04-23T11:51:44.925Z,17.31
2018-04-23T11:52:44.909Z,17.40
2018-04-23T11:53:44.895Z,17.48
2018-04-23T11:54:44.890Z,17.51
2018-04-23T11:55:44.866Z,17.70
2018-04-23T11:56:44.854Z,17.92
2018-04-23T11:57:44.848Z,17.84
2018-04-23T11:58:44.825Z,17.79
2018-04-23T11:59:44.816Z,17.75
2018-04-23T12:00:44.797Z,17.77
2018-04-23T12:01:44.788Z,17.97
2018-04-23T12:02:44.765Z,18.15
2018-04-23T12:03:44.756Z,18.30
2018-04-23T12:04:44.733Z,18.27
2018-04-23T12:05:44.730Z,18.23
2018-04-23T12:06:44.703Z,18.17
2018-04-23T12:07:44.694Z,18.21
2018-04-23T12:08:44.688Z,18.18
2018-04-23T12:09:44.662Z,18.21
2018-04-23T12:10:44.654Z,18.29
2018-04-23T12:11:44.637Z,18.50
2018-04-23T12:12:44.620Z,18.63
2018-04-23T12:13:44.608Z,18.58
2018-04-23T12:14:44.600Z,18.62
2018-04-23T12:15:44.578Z,18.62
2018-04-23T12:16:44.563Z,18.58
2018-04-23T12:17:44.559Z,18.70
2018-04-23T12:18:44.535Z,18.75
2018-04-23T12:19:44.522Z,18.67
2018-04-23T12:20:44.507Z,18.63
2018-04-23T12:21:44.513Z,18.62
2018-04-23T12:22:44.484Z,18.63
2018-04-23T12:23:44.464Z,18.75
2018-04-23T12:24:44.450Z,18.94
2018-04-23T12:25:44.436Z,18.85
2018-04-23T12:26:44.424Z,18.91
2018-04-23T12:27:44.413Z,18.92
2018-04-23T12:28:44.394Z,18.76
2018-04-23T12:29:44.412Z,18.62
2018-04-23T12:30:44.370Z,18.69
2018-04-23T12:31:44.354Z,18.63
2018-04-23T12:32:44.341Z,18.78
2018-04-23T12:33:44.326Z,18.99
2018-04-23T12:34:44.312Z,19.07
2018-04-23T12:35:44.302Z,19.22
2018-04-23T12:36:44.282Z,19.10
2018-04-23T12:37:44.273Z,18.52
2018-04-23T12:38:44.255Z,18.45
2018-04-23T12:39:44.254Z,18.44
2018-04-23T12:40:44.228Z,18.47
2018-04-23T12:41:44.216Z,18.67
2018-04-23T12:42:44.203Z,18.69
2018-04-23T12:43:44.189Z,18.78
2018-04-23T12:44:44.173Z,18.95
2018-04-23T12:45:44.160Z,19.10
2018-04-23T12:46:44.144Z,19.25
2018-04-23T12:47:44.130Z,19.33
2018-04-23T12:48:44.123Z,19.33
2018-04-23T12:49:44.105Z,19.37
2018-04-23T12:50:44.089Z,19.33
2018-04-23T12:51:44.078Z,19.41
2018-04-23T12:52:44.069Z,19.19